createdAt,value
2022-10-02T00:00:00.598Z,9.43
2022-10-02T00:02:37.402Z,10.73
2022-10-02T00:05:07.850Z,8.32
2022-10-02T00:07:54.258Z,8.77
2022-10-02T00:10:33.182Z,10.40
2022-10-02T00:13:04.748Z,9.50
2022-10-02T00:15:34.707Z,8.48
2022-10-02T00:18:32.950Z,5.65
2022-10-02T00:21:20.101Z,5.38
2022-10-02T00:23:51.357Z,5.65
2022-10-02T00:26:39.983Z,5.68
2022-10-02T00:29:20.347Z,5.55
2022-10-02T00:32:12.442Z,7.65
2022-10-02T00:34:52.983Z,5.70
2022-10-02T00:38:01.119Z,7.38
2022-10-02T00:40:42.984Z,6.13
2022-10-02T00:43:26.456Z,6.00
2022-10-02T00:46:22.566Z,8.30
2022-10-02T00:49:05.096Z,7.63
2022-10-02T00:51:51.951Z,7.35
2022-10-02T00:54:56.221Z,8.90
2022-10-02T00:57:42.671Z,6.57
2022-10-02T01:00:16.368Z,8.75
2022-10-02T01:03:15.623Z,6.18
2022-10-02T01:05:42.545Z,6.60
2022-10-02T01:08:09.449Z,5.28
2022-10-02T01:10:38.267Z,6.15
2022-10-02T01:13:06.736Z,4.88
2022-10-02T01:15:39.376Z,4.50
2022-10-02T01:18:07.700Z,6.38
2022-10-02T01:21:12.180Z,7.55
2022-10-02T01:24:03.123Z,7.38
2022-10-02T01:26:30.087Z,6.45
2022-10-02T01:28:57.126Z,5.28
2022-10-02T01:31:25.146Z,4.55
2022-10-02T01:33:52.735Z,9.05
2022-10-02T01:36:21.287Z,7.13
2022-10-02T01:38:50.132Z,6.90
2022-10-02T01:41:16.986Z,7.13
2022-10-02T01:43:53.411Z,9.75
2022-10-02T01:46:50.957Z,7.05
2022-10-02T01:49:52.024Z,6.25
2022-10-02T01:52:50.260Z,11.10
2022-10-02T01:55:23.093Z,9.05
2022-10-02T01:57:52.519Z,8.88
2022-10-02T02:00:22.980Z,9.63
2022-10-02T02:03:22.180Z,8.88
2022-10-02T02:06:04.842Z,7.25
2022-10-02T02:08:33.624Z,9.00
2022-10-02T02:11:09.324Z,8.85
2022-10-02T02:13:45.387Z,10.43
2022-10-02T02:16:47.585Z,13.90
2022-10-02T02:19:24.511Z,10.35
2022-10-02T02:22:13.997Z,5.43
2022-10-02T02:24:47.255Z,8.50
2022-10-02T02:27:19.753Z,8.90
2022-10-02T02:29:50.771Z,6.75
2022-10-02T02:32:23.161Z,9.75
2022-10-02T02:34:58.527Z,11.52
2022-10-02T02:37:27.009Z,10.40
2022-10-02T02:39:58.142Z,6.93
2022-10-02T02:42:31.198Z,9.52
2022-10-02T02:45:10.442Z,9.35
2022-10-02T02:48:01.052Z,5.43
2022-10-02T02:50:38.836Z,6.63
2022-10-02T02:53:20.829Z,6.63
2022-10-02T02:55:53.418Z,9.20
2022-10-02T02:58:26.994Z,4.68
2022-10-02T03:00:54.020Z,7.65
2022-10-02T03:03:21.022Z,7.97
2022-10-02T03:05:51.858Z,8.25
2022-10-02T03:08:29.454Z,7.30
2022-10-02T03:11:24.058Z,5.38
2022-10-02T03:14:25.168Z,5.05
2022-10-02T03:17:13.631Z,7.68
2022-10-02T03:19:53.027Z,9.27
2022-10-02T03:22:41.247Z,8.40
2022-10-02T03:25:13.320Z,7.20
2022-10-02T03:27:51.128Z,9.13
2022-10-02T03:30:20.771Z,10.20
2022-10-02T03:32:51.460Z,10.55
2022-10-02T03:35:18.624Z,9.57
2022-10-02T03:37:49.480Z,8.48
2022-10-02T03:40:16.289Z,9.85
2022-10-02T03:42:43.292Z,12.52
2022-10-02T03:45:10.156Z,13.32
2022-10-02T03:47:36.898Z,13.70
2022-10-02T03:50:03.830Z,12.32
2022-10-02T03:58:53.909Z,14.68
2022-10-02T04:01:26.566Z,14.82
2022-10-02T04:03:59.190Z,17.70
2022-10-02T04:06:38.807Z,12.65
2022-10-02T04:09:30.671Z,12.77
2022-10-02T04:12:08.975Z,17.25
2022-10-02T04:14:41.520Z,11.23
2022-10-02T04:17:48.704Z,13.43
2022-10-02T04:20:26.628Z,11.80
2022-10-02T04:22:58.896Z,12.23
2022-10-02T04:25:30.838Z,15.90
2022-10-02T04:28:03.509Z,15.88
2022-10-02T04:30:30.211Z,15.50
2022-10-02T04:33:12.687Z,14.18
2022-10-02T04:35:48.908Z,15.18
2022-10-02T04:38:28.384Z,14.45
2022-10-02T04:41:22.182Z,16.58
2022-10-02T04:44:05.901Z,19.13
2022-10-02T04:46:49.066Z,17.30
2022-10-02T04:49:43.782Z,18.10
2022-10-02T04:52:35.256Z,21.27
2022-10-02T04:55:36.928Z,18.02
2022-10-02T04:58:21.996Z,20.30
2022-10-02T05:01:04.394Z,17.30
2022-10-02T05:03:54.976Z,16.80
2022-10-02T05:06:57.525Z,16.73
2022-10-02T05:09:37.398Z,16.55
2022-10-02T05:12:40.563Z,9.48
2022-10-02T05:15:40.881Z,12.73
2022-10-02T05:18:35.641Z,15.75
2022-10-02T05:21:27.461Z,19.63
2022-10-02T05:24:42.836Z,16.73
2022-10-02T05:27:26.231Z,15.77
2022-10-02T05:30:28.878Z,15.60
2022-10-02T05:33:22.387Z,12.95
2022-10-02T05:36:08.502Z,15.60
2022-10-02T05:39:02.267Z,10.32
2022-10-02T05:41:38.137Z,12.52
2022-10-02T05:44:12.946Z,13.93
2022-10-02T05:47:01.586Z,12.95
2022-10-02T05:49:34.835Z,14.23
2022-10-02T05:52:13.513Z,10.15
2022-10-02T05:54:52.401Z,8.27
2022-10-02T05:57:23.401Z,12.40
2022-10-02T05:59:58.876Z,11.05
2022-10-02T06:02:43.585Z,10.75
2022-10-02T06:05:18.865Z,10.27
2022-10-02T06:07:50.849Z,9.73
2022-10-02T06:10:23.041Z,9.50
2022-10-02T06:12:58.434Z,12.57
2022-10-02T06:15:39.828Z,14.27
2022-10-02T06:18:11.951Z,8.88
2022-10-02T06:20:43.730Z,13.77
2022-10-02T06:23:20.672Z,11.18
2022-10-02T06:25:54.980Z,14.38
2022-10-02T06:28:43.389Z,11.48
2022-10-02T06:31:11.852Z,9.63
2022-10-02T06:33:38.712Z,18.00
2022-10-02T06:36:23.926Z,16.60
2022-10-02T06:39:05.658Z,19.90
2022-10-02T06:42:00.516Z,17.58
2022-10-02T06:44:42.059Z,16.83
2022-10-02T06:47:22.675Z,17.88
2022-10-02T06:50:19.266Z,19.17
2022-10-02T06:52:57.942Z,14.50
2022-10-02T06:55:27.435Z,12.93
2022-10-02T06:58:12.587Z,15.35
2022-10-02T07:00:55.604Z,16.58
2022-10-02T07:03:37.655Z,15.45
2022-10-02T07:06:15.795Z,14.98
2022-10-02T07:09:06.751Z,13.02
2022-10-02T07:11:52.277Z,16.55
2022-10-02T07:14:49.319Z,14.90
2022-10-02T07:17:49.485Z,15.88
2022-10-02T07:20:31.068Z,13.48
2022-10-02T07:23:13.397Z,14.93
2022-10-02T07:26:01.908Z,13.75
2022-10-02T07:28:49.847Z,16.88
2022-10-02T07:31:31.407Z,17.70
2022-10-02T07:34:13.320Z,14.63
2022-10-02T07:36:47.410Z,12.85
2022-10-02T07:39:41.322Z,14.77
2022-10-02T07:42:43.757Z,16.67
2022-10-02T07:45:22.280Z,14.50
2022-10-02T07:48:04.026Z,11.57
2022-10-02T07:50:45.483Z,12.93
2022-10-02T07:53:24.383Z,15.52
2022-10-02T07:55:55.982Z,14.38
2022-10-02T07:58:36.862Z,12.93
2022-10-02T08:01:13.884Z,16.05
2022-10-02T08:03:47.670Z,12.10
2022-10-02T08:06:15.711Z,11.00
2022-10-02T08:09:13.304Z,9.18
2022-10-02T08:11:59.232Z,8.50
2022-10-02T08:14:38.715Z,12.23
2022-10-02T08:17:35.829Z,10.00
2022-10-02T08:20:27.389Z,10.23
2022-10-02T08:23:03.707Z,11.70
2022-10-02T08:25:48.044Z,9.45
2022-10-02T08:28:36.834Z,10.43
2022-10-02T08:31:12.717Z,8.07
2022-10-02T08:33:40.102Z,8.48
2022-10-02T08:36:28.482Z,6.78
2022-10-02T08:39:28.089Z,5.97
2022-10-02T08:42:36.373Z,7.53
2022-10-02T08:45:40.954Z,6.50
2022-10-02T08:48:42.427Z,6.75
2022-10-02T08:51:21.266Z,8.27
2022-10-02T08:54:16.040Z,8.38
2022-10-02T08:57:04.525Z,5.85
2022-10-02T08:59:53.173Z,8.00
2022-10-02T09:02:41.666Z,8.57
2022-10-02T09:05:27.343Z,5.70
2022-10-02T09:08:48.092Z,6.40
2022-10-02T09:12:01.714Z,4.65
2022-10-02T09:14:47.458Z,5.68
2022-10-02T09:17:20.146Z,4.28
2022-10-02T09:20:15.318Z,2.63
2022-10-02T09:23:09.247Z,4.13
2022-10-02T09:26:11.888Z,3.85
2022-10-02T09:29:03.365Z,4.63
2022-10-02T09:32:05.967Z,6.63
2022-10-02T09:34:42.885Z,6.38
2022-10-02T09:37:53.842Z,8.68
2022-10-02T09:40:39.410Z,15.65
2022-10-02T09:43:41.397Z,12.00
2022-10-02T09:46:44.576Z,4.85
2022-10-02T09:49:48.519Z,5.78
2022-10-02T09:52:23.947Z,5.38
2022-10-02T09:55:11.648Z,4.63
2022-10-02T09:58:12.611Z,5.03
2022-10-02T10:00:49.470Z,3.58
2022-10-02T10:03:19.111Z,3.58
2022-10-02T10:06:16.281Z,5.80
2022-10-02T10:08:54.733Z,3.63
2022-10-02T10:11:56.577Z,3.80
2022-10-02T10:15:08.973Z,4.72
2022-10-02T10:17:42.150Z,4.38
2022-10-02T10:20:14.348Z,4.35
2022-10-02T10:22:57.659Z,5.35
2022-10-02T10:26:08.116Z,4.03
2022-10-02T10:28:55.814Z,3.45
2022-10-02T10:31:42.076Z,4.75
2022-10-02T10:34:30.243Z,3.90
2022-10-02T10:37:20.900Z,3.95
2022-10-02T10:40:20.989Z,4.88
2022-10-02T10:43:14.290Z,5.57
2022-10-02T10:46:03.758Z,3.03
2022-10-02T10:48:54.145Z,6.50
2022-10-02T10:51:41.449Z,3.78
2022-10-02T10:54:44.702Z,2.83
2022-10-02T10:57:39.598Z,5.57
2022-10-02T11:00:16.249Z,2.95
2022-10-02T11:03:04.520Z,3.80
2022-10-02T11:05:51.706Z,4.90
2022-10-02T11:08:48.849Z,4.38
2022-10-02T11:11:40.470Z,4.05
2022-10-02T11:14:16.403Z,4.57
2022-10-02T11:17:34.737Z,5.97
2022-10-02T11:20:04.328Z,4.57
2022-10-02T11:22:37.848Z,4.35
2022-10-02T11:25:42.289Z,5.95
2022-10-02T11:28:30.017Z,3.42
2022-10-02T11:31:28.634Z,5.35
2022-10-02T11:34:13.763Z,4.82
2022-10-02T11:36:59.510Z,6.38
2022-10-02T11:39:47.818Z,3.90
2022-10-02T11:42:32.025Z,4.03
2022-10-02T11:45:08.006Z,4.40
2022-10-02T11:48:12.530Z,8.27
2022-10-02T11:50:47.662Z,5.28
2022-10-02T11:53:32.755Z,6.45
2022-10-02T11:56:04.817Z,6.18
2022-10-02T11:58:46.707Z,4.70
2022-10-02T12:01:32.521Z,4.68
2022-10-02T12:04:20.670Z,6.40
2022-10-02T12:07:06.090Z,5.85
2022-10-02T12:09:57.642Z,8.82
2022-10-02T12:12:27.959Z,7.35
2022-10-02T12:15:20.526Z,7.72
2022-10-02T12:18:03.870Z,6.25
2022-10-02T12:20:59.694Z,10.50
2022-10-02T12:24:09.010Z,8.45
2022-10-02T12:26:59.192Z,8.27
2022-10-02T12:29:58.683Z,7.05
2022-10-02T12:32:44.096Z,10.27
2022-10-02T12:35:31.578Z,8.48
2022-10-02T12:38:04.399Z,8.02
2022-10-02T12:40:41.766Z,8.48
2022-10-02T12:43:27.602Z,8.90
2022-10-02T12:46:18.948Z,7.50
2022-10-02T12:49:02.137Z,7.88
2022-10-02T12:51:38.187Z,6.82
2022-10-02T12:54:44.374Z,9.75
2022-10-02T12:57:47.028Z,9.35
2022-10-02T13:00:22.308Z,6.78
2022-10-02T13:03:26.808Z,10.70
2022-10-02T13:06:13.090Z,10.40
2022-10-02T13:09:06.056Z,7.20
2022-10-02T13:12:13.282Z,6.88
2022-10-02T13:15:06.768Z,9.15
2022-10-02T13:17:46.464Z,7.53
2022-10-02T13:20:21.321Z,8.32
2022-10-02T13:23:19.893Z,8.80
2022-10-02T13:26:12.024Z,5.63
2022-10-02T13:28:48.204Z,8.82
2022-10-02T13:31:26.812Z,6.35
2022-10-02T13:34:07.114Z,4.72
2022-10-02T13:37:04.718Z,4.40
2022-10-02T13:39:34.085Z,3.45
2022-10-02T13:42:18.220Z,3.88
2022-10-02T13:44:54.890Z,5.18
2022-10-02T13:47:42.015Z,7.28
2022-10-02T13:50:23.955Z,8.40
2022-10-02T13:53:09.594Z,6.70
2022-10-02T13:55:44.325Z,3.95
2022-10-02T13:58:20.066Z,5.93
2022-10-02T14:01:12.115Z,8.40
2022-10-02T14:04:28.078Z,4.32
2022-10-02T14:07:19.900Z,7.65
2022-10-02T14:10:02.770Z,5.70
2022-10-02T14:12:53.083Z,6.47
2022-10-02T14:15:30.981Z,9.70
2022-10-02T14:18:31.193Z,6.90
2022-10-02T14:21:12.787Z,6.07
2022-10-02T14:23:48.564Z,7.53
2022-10-02T14:26:43.470Z,6.60
2022-10-02T14:29:31.357Z,5.93
2022-10-02T14:32:37.296Z,5.95
2022-10-02T14:35:23.254Z,6.10
2022-10-02T14:38:03.720Z,7.53
2022-10-02T14:40:39.793Z,7.32
2022-10-02T14:43:12.512Z,9.07
2022-10-02T14:46:27.534Z,6.03
2022-10-02T14:49:00.796Z,4.63
2022-10-02T14:52:06.387Z,7.70
2022-10-02T14:54:33.201Z,6.03
2022-10-02T14:57:23.220Z,7.22
2022-10-02T15:00:18.529Z,5.20
2022-10-02T15:03:01.432Z,7.13
2022-10-02T15:05:38.597Z,10.07
2022-10-02T15:08:20.326Z,7.00
2022-10-02T15:10:49.332Z,6.18
2022-10-02T15:13:35.024Z,6.82
2022-10-02T15:16:41.686Z,9.23
2022-10-02T15:19:17.397Z,4.88
2022-10-02T15:21:59.080Z,7.43
2022-10-02T15:24:32.541Z,9.35
2022-10-02T15:27:15.450Z,6.68
2022-10-02T15:29:59.321Z,7.85
2022-10-02T15:32:34.916Z,8.23
2022-10-02T15:35:24.492Z,9.65
2022-10-02T15:38:07.770Z,9.75
2022-10-02T15:40:54.015Z,7.90
2022-10-02T15:43:32.012Z,8.93
2022-10-02T15:46:30.676Z,6.88
2022-10-02T15:49:12.831Z,9.18
2022-10-02T15:51:57.911Z,8.98
2022-10-02T15:54:45.689Z,14.80
2022-10-02T15:57:39.615Z,9.43
2022-10-02T16:00:19.495Z,7.30
2022-10-02T16:02:49.477Z,8.00
2022-10-02T16:05:54.748Z,12.25
2022-10-02T16:08:46.216Z,12.82
2022-10-02T16:11:25.374Z,8.85
2022-10-02T16:14:07.938Z,12.38
2022-10-02T16:16:39.321Z,10.20
2022-10-02T16:19:40.750Z,15.20
2022-10-02T16:22:22.485Z,8.30
2022-10-02T16:25:06.179Z,8.90
2022-10-02T16:28:00.997Z,8.07
2022-10-02T16:30:35.485Z,9.85
2022-10-02T16:33:14.005Z,10.10
2022-10-02T16:35:43.735Z,10.63
2022-10-02T16:38:23.194Z,9.73
2022-10-02T16:41:04.215Z,11.20
2022-10-02T16:43:48.729Z,12.05
2022-10-02T16:46:31.902Z,9.80
2022-10-02T16:49:04.472Z,12.20
2022-10-02T16:51:41.090Z,11.70
2022-10-02T16:54:25.376Z,8.00
2022-10-02T16:57:14.640Z,8.70
2022-10-02T17:00:00.532Z,9.98
2022-10-02T17:02:34.555Z,10.68
2022-10-02T17:05:14.347Z,11.13
2022-10-02T17:08:08.639Z,10.27
2022-10-02T17:11:07.112Z,8.70
2022-10-02T17:14:01.882Z,11.38
2022-10-02T17:16:36.990Z,13.50
2022-10-02T17:19:21.295Z,10.30
2022-10-02T17:21:59.749Z,12.27
2022-10-02T17:24:50.676Z,14.88
2022-10-02T17:27:17.350Z,17.13
2022-10-02T17:29:50.501Z,10.82
2022-10-02T17:32:46.059Z,9.20
2022-10-02T17:35:51.386Z,9.93
2022-10-02T17:38:37.121Z,10.82
2022-10-02T17:41:20.804Z,12.27
2022-10-02T17:44:12.832Z,16.17
2022-10-02T17:46:46.533Z,7.18
2022-10-02T17:49:32.101Z,11.00
2022-10-02T17:52:36.645Z,11.35
2022-10-02T17:55:59.470Z,11.95
2022-10-02T17:58:39.179Z,9.70
2022-10-02T18:01:33.275Z,9.57
2022-10-02T18:04:45.015Z,13.02
2022-10-02T18:07:48.132Z,10.00
2022-10-02T18:10:41.327Z,7.97
2022-10-02T18:13:22.496Z,10.75
2022-10-02T18:16:19.415Z,11.23
2022-10-02T18:19:04.717Z,8.00
2022-10-02T18:21:40.501Z,11.98
2022-10-02T18:24:26.957Z,9.88
2022-10-02T18:27:32.668Z,11.10
2022-10-02T18:30:24.024Z,10.20
2022-10-02T18:33:00.296Z,10.07
2022-10-02T18:35:57.344Z,13.88
2022-10-02T18:38:29.136Z,14.02
2022-10-02T18:41:24.808Z,11.57
2022-10-02T18:44:04.652Z,14.80
2022-10-02T18:46:40.833Z,12.95
2022-10-02T18:49:37.476Z,12.13
2022-10-02T18:52:24.377Z,13.07
2022-10-02T18:55:03.738Z,12.63
2022-10-02T18:58:07.420Z,11.43
2022-10-02T19:00:58.823Z,7.53
2022-10-02T19:03:30.825Z,12.38
2022-10-02T19:06:28.403Z,10.43
2022-10-02T19:09:07.426Z,11.48
2022-10-02T19:11:46.852Z,9.75
2022-10-02T19:14:34.268Z,13.38
2022-10-02T19:17:12.140Z,15.93
2022-10-02T19:19:40.590Z,9.90
2022-10-02T19:22:32.756Z,14.40
2022-10-02T19:25:08.217Z,11.35
2022-10-02T19:27:37.181Z,11.18
2022-10-02T19:30:26.714Z,10.52
2022-10-02T19:33:08.138Z,13.25
2022-10-02T19:35:44.032Z,15.02
2022-10-02T19:38:41.917Z,8.32
2022-10-02T19:41:13.584Z,10.82
2022-10-02T19:44:07.246Z,14.57
2022-10-02T19:46:44.411Z,13.65
2022-10-02T19:49:38.357Z,14.73
2022-10-02T19:52:30.344Z,13.45
2022-10-02T19:54:59.005Z,15.75
2022-10-02T19:57:36.329Z,12.73
2022-10-02T20:00:07.623Z,14.48
2022-10-02T20:02:44.846Z,13.73
2022-10-02T20:05:22.763Z,13.35
2022-10-02T20:07:52.147Z,14.88
2022-10-02T20:10:34.772Z,11.77
2022-10-02T20:13:14.824Z,31.10
2022-10-02T20:16:07.199Z,18.63
2022-10-02T20:18:34.553Z,32.83
2022-10-02T20:21:29.171Z,19.50
2022-10-02T20:23:59.566Z,24.27
2022-10-02T20:26:30.093Z,16.10
2022-10-02T20:29:01.419Z,16.73
2022-10-02T20:31:46.532Z,16.02
2022-10-02T20:34:25.096Z,11.68
2022-10-02T20:37:05.115Z,13.65
2022-10-02T20:39:47.179Z,9.90
2022-10-02T20:42:22.974Z,9.68
2022-10-02T20:44:50.839Z,15.70
2022-10-02T20:47:39.912Z,14.73
2022-10-02T20:50:33.215Z,13.00
2022-10-02T20:53:12.336Z,15.82
2022-10-02T20:55:56.354Z,13.73
2022-10-02T20:58:52.009Z,13.80
2022-10-02T21:01:30.703Z,13.18
2022-10-02T21:04:25.991Z,16.38
2022-10-02T21:07:16.719Z,15.18
2022-10-02T21:10:05.304Z,12.65
2022-10-02T21:12:47.129Z,11.90
2022-10-02T21:15:36.304Z,16.27
2022-10-02T21:18:37.307Z,14.23
2022-10-02T21:21:38.440Z,8.05
2022-10-02T21:24:16.379Z,9.50
2022-10-02T21:26:55.848Z,10.50
2022-10-02T21:29:26.344Z,9.00
2022-10-02T21:32:33.259Z,8.02
2022-10-02T21:35:34.238Z,10.52
2022-10-02T21:38:30.517Z,11.40
2022-10-02T21:41:10.533Z,11.55
2022-10-02T21:44:04.685Z,16.10
2022-10-02T21:46:37.570Z,12.60
2022-10-02T21:49:19.626Z,17.60
2022-10-02T21:52:08.344Z,9.90
2022-10-02T21:55:12.544Z,13.13
2022-10-02T21:58:00.915Z,10.00
2022-10-02T22:00:32.000Z,10.02
2022-10-02T22:03:07.122Z,12.80
2022-10-02T22:05:40.070Z,18.75
2022-10-02T22:08:32.591Z,14.38
2022-10-02T22:11:02.117Z,11.55
2022-10-02T22:13:37.164Z,10.27
2022-10-02T22:16:30.702Z,16.52
2022-10-02T22:19:41.326Z,9.43
2022-10-02T22:22:11.393Z,12.60
2022-10-02T22:25:06.940Z,9.90
2022-10-02T22:27:36.946Z,19.55
2022-10-02T22:30:05.093Z,15.13
2022-10-02T22:33:11.781Z,14.45
2022-10-02T22:36:03.004Z,13.13
2022-10-02T22:38:37.957Z,14.25
2022-10-02T22:41:07.001Z,13.60
2022-10-02T22:43:53.305Z,12.10
2022-10-02T22:46:29.848Z,8.23
2022-10-02T22:48:59.916Z,14.50
2022-10-02T22:51:35.610Z,19.98
2022-10-02T22:54:18.172Z,24.13
2022-10-02T22:57:03.771Z,21.70
2022-10-02T22:59:53.466Z,18.45
2022-10-02T23:02:44.128Z,12.15
2022-10-02T23:05:41.975Z,13.95
2022-10-02T23:08:36.424Z,15.13
2022-10-02T23:11:22.120Z,12.02
2022-10-02T23:14:05.501Z,15.93
2022-10-02T23:16:47.048Z,11.32
2022-10-02T23:19:43.930Z,10.45
2022-10-02T23:22:28.651Z,18.60
2022-10-02T23:25:14.741Z,12.50
2022-10-02T23:27:54.777Z,15.35
2022-10-02T23:30:23.619Z,15.00
2022-10-02T23:33:00.668Z,13.20
2022-10-02T23:35:44.220Z,10.95
2022-10-02T23:38:14.079Z,11.55
2022-10-02T23:41:31.606Z,13.15
2022-10-02T23:44:22.340Z,15.73
2022-10-02T23:46:49.306Z,13.90
2022-10-02T23:49:22.340Z,12.85
2022-10-02T23:52:07.658Z,13.77
2022-10-02T23:54:54.178Z,15.38
2022-10-02T23:57:45.147Z,13.20
